Time;durP1;ratioP1;P1;durP2;ratioP2;P2;SDS_P1;SDS_P2;PMS_P1;PMS_P2;Temp;Humidity;BMP_temperature;BMP_pressure;BME280_temperature;BME280_humidity;BME280_pressure;Samples;Min_cycle;Max_cycle;Signal;HPM_P1;HPM_P2
2022/06/22 00:01:10;;;;;;;14.32;9.18;;;;;;;;;;4999653;28;20769;-70
2022/06/22 00:03:35;;;;;;;14.38;9.70;;;;;;;;;;4998636;28;20276;-70
2022/06/22 00:06:01;;;;;;;16.42;8.82;;;;;;;;;;4992791;28;20678;-70
2022/06/22 00:08:33;;;;;;;12.68;8.32;;;;;;;;;;4999299;28;20225;-70
2022/06/22 00:11:10;;;;;;;19.05;9.25;;;;;;;;;;5016281;28;20792;-70
2022/06/22 00:13:35;;;;;;;17.17;9.32;;;;;;;;;;5000727;28;20264;-69
2022/06/22 00:16:04;;;;;;;17.00;9.60;;;;;;;;;;5015053;28;20179;-69
2022/06/22 00:18:41;;;;;;;13.48;8.90;;;;;;;;;;4996703;28;20187;-69
2022/06/22 00:21:23;;;;;;;18.20;9.27;;;;;;;;;;5000325;28;20178;-70
2022/06/22 00:23:52;;;;;;;18.83;9.38;;;;;;;;;;5000390;28;20190;-70
2022/06/22 00:26:24;;;;;;;15.93;10.10;;;;;;;;;;5000662;28;20194;-69
2022/06/22 00:29:04;;;;;;;20.95;9.85;;;;;;;;;;4998057;28;20214;-69
2022/06/22 00:31:48;;;;;;;13.40;8.98;;;;;;;;;;4998676;28;20281;-69
2022/06/22 00:34:21;;;;;;;18.42;10.10;;;;;;;;;;4998176;28;20218;-70
2022/06/22 00:36:57;;;;;;;15.80;9.80;;;;;;;;;;4997786;28;20209;-70
2022/06/22 00:39:31;;;;;;;12.68;9.20;;;;;;;;;;4997915;28;20179;-69
2022/06/22 00:42:14;;;;;;;19.10;10.32;;;;;;;;;;4997646;28;20366;-69
2022/06/22 00:44:46;;;;;;;20.15;9.80;;;;;;;;;;4997636;28;20244;-69
2022/06/22 00:47:23;;;;;;;14.73;9.93;;;;;;;;;;4998882;28;20225;-69
2022/06/22 00:49:49;;;;;;;14.05;9.80;;;;;;;;;;4997084;28;20174;-70
2022/06/22 00:52:25;;;;;;;17.42;9.65;;;;;;;;;;4997390;28;21101;-70
2022/06/22 00:54:51;;;;;;;13.10;9.77;;;;;;;;;;4998206;28;20999;-70
2022/06/22 00:57:25;;;;;;;16.30;10.23;;;;;;;;;;4997791;28;20166;-70
2022/06/22 01:00:13;;;;;;;15.65;10.02;;;;;;;;;;4997472;28;20178;-69
2022/06/22 01:02:46;;;;;;;13.88;9.55;;;;;;;;;;4998085;28;20863;-70
2022/06/22 01:05:14;;;;;;;16.60;10.02;;;;;;;;;;4999455;28;20684;-70
2022/06/22 01:08:12;;;;;;;18.15;10.32;;;;;;;;;;4998729;28;20260;-69
2022/06/22 01:10:49;;;;;;;15.75;10.52;;;;;;;;;;4994051;28;20179;-69
2022/06/22 01:13:18;;;;;;;16.38;11.02;;;;;;;;;;4998091;28;20214;-69
2022/06/22 01:15:53;;;;;;;17.08;10.50;;;;;;;;;;4996670;28;20592;-69
2022/06/22 01:18:31;;;;;;;16.60;10.75;;;;;;;;;;4998621;28;20599;-69
2022/06/22 01:21:07;;;;;;;19.75;10.93;;;;;;;;;;4994615;28;20196;-69
2022/06/22 01:24:21;;;;;;;18.15;11.25;;;;;;;;;;4998953;28;20475;-69
2022/06/22 01:27:20;;;;;;;16.45;10.48;;;;;;;;;;4992536;28;20233;-70
2022/06/22 01:29:57;;;;;;;14.07;9.65;;;;;;;;;;4998710;28;20197;-70
2022/06/22 01:32:27;;;;;;;14.63;10.80;;;;;;;;;;4999173;28;20690;-70
2022/06/22 01:35:01;;;;;;;18.63;10.98;;;;;;;;;;4996454;28;20179;-70
2022/06/22 01:37:35;;;;;;;19.92;11.30;;;;;;;;;;4996698;28;20198;-70
2022/06/22 01:40:20;;;;;;;15.43;11.88;;;;;;;;;;4996851;28;20638;-70
2022/06/22 01:42:52;;;;;;;18.65;11.13;;;;;;;;;;4996779;28;20186;-69
2022/06/22 01:45:44;;;;;;;17.92;11.05;;;;;;;;;;4997372;28;20195;-70
2022/06/22 01:48:23;;;;;;;15.18;10.85;;;;;;;;;;4996699;28;20491;-70
2022/06/22 01:50:59;;;;;;;20.02;10.95;;;;;;;;;;4997429;28;20611;-69
2022/06/22 01:53:31;;;;;;;15.93;11.20;;;;;;;;;;4997136;28;20229;-70
2022/06/22 01:56:25;;;;;;;13.40;10.50;;;;;;;;;;4997411;28;20664;-70
2022/06/22 01:58:51;;;;;;;16.52;10.82;;;;;;;;;;4997103;28;20186;-70
2022/06/22 02:01:32;;;;;;;15.32;10.48;;;;;;;;;;5000048;28;20189;-70
2022/06/22 02:04:22;;;;;;;18.90;11.10;;;;;;;;;;4997494;28;20214;-69
2022/06/22 02:10:05;;;;;;;15.10;11.10;;;;;;;;;;4997029;28;20198;-70
2022/06/22 02:12:37;;;;;;;18.10;11.23;;;;;;;;;;4995579;28;20198;-70
2022/06/22 02:15:18;;;;;;;17.15;11.90;;;;;;;;;;4997997;28;20190;-70
2022/06/22 02:17:44;;;;;;;16.50;10.43;;;;;;;;;;5012835;28;20245;-70
2022/06/22 02:20:19;;;;;;;15.85;11.85;;;;;;;;;;4997966;28;20804;-70
2022/06/22 02:22:49;;;;;;;18.20;11.85;;;;;;;;;;4997400;28;20281;-68
2022/06/22 02:25:17;;;;;;;18.60;11.48;;;;;;;;;;5001918;28;20906;-69
2022/06/22 02:27:42;;;;;;;17.75;11.45;;;;;;;;;;4998684;28;20243;-69
2022/06/22 02:30:08;;;;;;;16.88;11.55;;;;;;;;;;5000662;28;20718;-69
2022/06/22 02:32:39;;;;;;;15.82;11.13;;;;;;;;;;5000030;28;20234;-68
2022/06/22 02:35:07;;;;;;;19.98;10.77;;;;;;;;;;5001267;28;20599;-69
2022/06/22 02:37:38;;;;;;;14.73;10.65;;;;;;;;;;5000288;28;20309;-69
2022/06/22 02:40:09;;;;;;;15.80;11.05;;;;;;;;;;5000483;28;20237;-70
2022/06/22 02:45:18;;;;;;;21.27;11.77;;;;;;;;;;5002810;28;20189;-69
2022/06/22 02:48:01;;;;;;;15.55;11.60;;;;;;;;;;5000149;28;20195;-69
2022/06/22 02:51:16;;;;;;;18.13;12.38;;;;;;;;;;5000683;28;20206;-71
2022/06/22 02:53:42;;;;;;;21.73;11.95;;;;;;;;;;4931295;28;20216;-70
2022/06/22 02:56:15;;;;;;;17.42;11.93;;;;;;;;;;4952469;28;20195;-70
2022/06/22 02:58:41;;;;;;;19.45;12.45;;;;;;;;;;4975571;28;20214;-70
2022/06/22 03:01:12;;;;;;;20.55;12.65;;;;;;;;;;5000674;28;20221;-70
2022/06/22 03:03:42;;;;;;;16.67;11.32;;;;;;;;;;5014383;28;20186;-69
2022/06/22 03:06:11;;;;;;;19.05;12.38;;;;;;;;;;4998670;28;20171;-70
2022/06/22 03:08:37;;;;;;;15.43;10.88;;;;;;;;;;4999541;28;20198;-70
2022/06/22 03:11:05;;;;;;;17.35;11.85;;;;;;;;;;4999594;28;20174;-70
2022/06/22 03:13:39;;;;;;;14.77;10.65;;;;;;;;;;4999261;28;20242;-70
2022/06/22 03:16:09;;;;;;;17.05;11.38;;;;;;;;;;5000276;28;20206;-69
2022/06/22 03:18:39;;;;;;;14.35;10.77;;;;;;;;;;4998824;28;20182;-70
2022/06/22 03:21:11;;;;;;;17.48;10.45;;;;;;;;;;5000915;28;20225;-70
2022/06/22 03:23:57;;;;;;;17.80;10.80;;;;;;;;;;4997505;28;20194;-69
2022/06/22 03:26:31;;;;;;;18.15;12.10;;;;;;;;;;4999972;28;20202;-70
2022/06/22 03:29:10;;;;;;;17.83;12.38;;;;;;;;;;4999275;28;20191;-70
2022/06/22 03:31:46;;;;;;;16.77;12.20;;;;;;;;;;5000275;28;20206;-70
2022/06/22 03:34:19;;;;;;;20.58;12.60;;;;;;;;;;4999864;28;20314;-69
2022/06/22 03:36:50;;;;;;;17.95;12.60;;;;;;;;;;4999078;28;20191;-70
2022/06/22 03:39:18;;;;;;;24.13;14.52;;;;;;;;;;5000807;28;20265;-70
2022/06/22 03:41:53;;;;;;;24.90;14.65;;;;;;;;;;4998910;28;20213;-69
2022/06/22 03:44:33;;;;;;;21.27;14.00;;;;;;;;;;4999761;28;20205;-69
2022/06/22 03:47:14;;;;;;;20.80;13.25;;;;;;;;;;5001009;28;20649;-70
2022/06/22 03:49:54;;;;;;;21.48;13.25;;;;;;;;;;4999554;28;20222;-70
2022/06/22 03:52:35;;;;;;;20.67;13.60;;;;;;;;;;5001022;28;20281;-69
2022/06/22 03:55:09;;;;;;;18.50;12.82;;;;;;;;;;4999022;28;20186;-69
2022/06/22 03:57:39;;;;;;;22.05;14.13;;;;;;;;;;4999812;28;20190;-68
2022/06/22 04:00:06;;;;;;;22.45;12.07;;;;;;;;;;4997711;28;20369;-69
2022/06/22 04:02:32;;;;;;;20.08;11.82;;;;;;;;;;4998212;28;20197;-69
2022/06/22 04:04:58;;;;;;;17.40;12.80;;;;;;;;;;4998986;28;20217;-69
2022/06/22 04:07:27;;;;;;;19.00;11.48;;;;;;;;;;5001035;28;20230;-69
2022/06/22 04:09:55;;;;;;;20.02;12.65;;;;;;;;;;4999583;28;20610;-71
2022/06/22 04:12:36;;;;;;;16.42;12.05;;;;;;;;;;4999053;28;20209;-69
2022/06/22 04:15:12;;;;;;;17.23;11.88;;;;;;;;;;4998796;28;20182;-69
2022/06/22 04:17:44;;;;;;;16.80;11.77;;;;;;;;;;4998436;28;20305;-69
2022/06/22 04:20:21;;;;;;;16.23;12.00;;;;;;;;;;4998731;28;20629;-70
2022/06/22 04:22:52;;;;;;;17.85;11.55;;;;;;;;;;5001115;28;20590;-69
2022/06/22 04:25:26;;;;;;;17.02;11.65;;;;;;;;;;5000563;28;20183;-69
2022/06/22 04:27:54;;;;;;;17.40;11.23;;;;;;;;;;4998077;28;20291;-69
2022/06/22 04:30:25;;;;;;;20.27;11.95;;;;;;;;;;4998673;28;20183;-69
2022/06/22 04:32:59;;;;;;;13.27;10.30;;;;;;;;;;5012956;28;20643;-69
2022/06/22 04:35:46;;;;;;;14.90;10.25;;;;;;;;;;4998582;28;20210;-70
2022/06/22 04:38:36;;;;;;;11.25;9.32;;;;;;;;;;5012486;28;20269;-69
2022/06/22 04:41:31;;;;;;;14.00;9.15;;;;;;;;;;4998796;28;20234;-69
2022/06/22 04:44:01;;;;;;;11.55;8.75;;;;;;;;;;4998798;28;20196;-70
2022/06/22 04:46:33;;;;;;;10.68;8.23;;;;;;;;;;4998437;28;20265;-70
2022/06/22 04:49:05;;;;;;;13.40;8.43;;;;;;;;;;4998070;28;20746;-69
2022/06/22 04:51:34;;;;;;;10.77;7.88;;;;;;;;;;4999052;28;20179;-69
2022/06/22 04:54:02;;;;;;;10.07;7.63;;;;;;;;;;4999681;28;20191;-69
2022/06/22 04:56:50;;;;;;;10.18;7.78;;;;;;;;;;4998547;28;20187;-70
2022/06/22 04:59:18;;;;;;;8.93;6.93;;;;;;;;;;4997798;28;20721;-69
2022/06/22 05:01:48;;;;;;;9.27;7.97;;;;;;;;;;5002041;28;20289;-69
2022/06/22 05:04:22;;;;;;;12.07;7.90;;;;;;;;;;4998547;28;20190;-69
2022/06/22 05:06:56;;;;;;;9.68;7.53;;;;;;;;;;4999192;28;20183;-69
2022/06/22 05:09:28;;;;;;;9.85;7.97;;;;;;;;;;4997468;28;20186;-70
2022/06/22 05:11:54;;;;;;;10.70;8.40;;;;;;;;;;4998745;28;20329;-70
2022/06/22 05:14:24;;;;;;;9.40;8.27;;;;;;;;;;4997981;28;20250;-70
2022/06/22 05:17:01;;;;;;;13.50;9.35;;;;;;;;;;5000468;28;20498;-70
2022/06/22 05:19:33;;;;;;;11.93;8.68;;;;;;;;;;4998256;28;20376;-70
2022/06/22 05:21:58;;;;;;;13.32;9.32;;;;;;;;;;4998125;28;20178;-70
2022/06/22 05:24:33;;;;;;;12.02;9.35;;;;;;;;;;4999048;28;20248;-70
2022/06/22 05:27:04;;;;;;;13.32;8.98;;;;;;;;;;4998531;28;20226;-69
2022/06/22 05:29:36;;;;;;;10.13;8.93;;;;;;;;;;4997730;28;20659;-69
2022/06/22 05:32:07;;;;;;;13.13;10.20;;;;;;;;;;4998723;28;20280;-68
2022/06/22 05:34:37;;;;;;;13.55;9.60;;;;;;;;;;4998260;28;20206;-69
2022/06/22 05:37:23;;;;;;;17.30;10.00;;;;;;;;;;4998904;28;20608;-69
2022/06/22 05:39:48;;;;;;;13.40;10.10;;;;;;;;;;4996108;28;20183;-69
2022/06/22 05:42:15;;;;;;;15.85;10.32;;;;;;;;;;4997788;28;21022;-70
2022/06/22 05:44:41;;;;;;;13.85;10.57;;;;;;;;;;4996944;28;20190;-68
2022/06/22 05:47:15;;;;;;;15.32;10.65;;;;;;;;;;4995901;28;20183;-70
2022/06/22 05:49:46;;;;;;;19.80;10.55;;;;;;;;;;4994839;28;20702;-68
2022/06/22 05:52:21;;;;;;;16.20;11.45;;;;;;;;;;4994277;28;20195;-69
2022/06/22 05:54:55;;;;;;;14.32;10.15;;;;;;;;;;4996750;28;20182;-69
2022/06/22 05:57:35;;;;;;;14.85;10.05;;;;;;;;;;4999074;28;20197;-69
2022/06/22 06:00:09;;;;;;;14.40;9.80;;;;;;;;;;5001198;28;20182;-68
2022/06/22 06:03:03;;;;;;;14.88;10.45;;;;;;;;;;5000768;28;20190;-68
2022/06/22 06:05:35;;;;;;;14.85;10.50;;;;;;;;;;5002415;28;20183;-69
2022/06/22 06:08:06;;;;;;;15.77;9.82;;;;;;;;;;5000632;28;20183;-70
2022/06/22 06:10:38;;;;;;;13.65;9.90;;;;;;;;;;5001870;28;20181;-69
2022/06/22 06:13:21;;;;;;;12.82;9.13;;;;;;;;;;4999509;28;20248;-69
2022/06/22 06:15:52;;;;;;;15.00;9.38;;;;;;;;;;5000643;28;20370;-70
2022/06/22 06:18:23;;;;;;;11.40;8.18;;;;;;;;;;4999110;28;20309;-69
2022/06/22 06:21:10;;;;;;;13.82;7.90;;;;;;;;;;4999559;28;20925;-69
2022/06/22 06:23:51;;;;;;;9.98;6.88;;;;;;;;;;4998589;28;20179;-68
2022/06/22 06:29:21;;;;;;;10.45;5.95;;;;;;;;;;5000035;28;20693;-68
2022/06/22 06:31:57;;;;;;;11.75;6.20;;;;;;;;;;4998417;28;20218;-69
2022/06/22 06:34:27;;;;;;;7.68;5.53;;;;;;;;;;5000069;28;20198;-70
2022/06/22 06:37:20;;;;;;;10.43;5.53;;;;;;;;;;5002185;28;20673;-69
2022/06/22 06:39:51;;;;;;;6.53;4.90;;;;;;;;;;4999552;28;20669;-69
2022/06/22 06:42:37;;;;;;;6.82;4.10;;;;;;;;;;5002230;28;20472;-70
2022/06/22 06:45:11;;;;;;;9.23;5.15;;;;;;;;;;5000862;28;20684;-70
2022/06/22 06:47:38;;;;;;;7.60;4.88;;;;;;;;;;5002803;28;20179;-70
2022/06/22 06:50:13;;;;;;;9.23;4.68;;;;;;;;;;5001831;28;20186;-70
2022/06/22 06:52:47;;;;;;;9.70;4.88;;;;;;;;;;5002459;28;20713;-70
2022/06/22 06:55:21;;;;;;;9.13;4.70;;;;;;;;;;5001137;28;21083;-70
2022/06/22 06:58:23;;;;;;;8.73;4.80;;;;;;;;;;5000039;28;20725;-69
2022/06/22 07:00:48;;;;;;;8.00;4.45;;;;;;;;;;4979589;28;20730;-70
2022/06/22 07:03:21;;;;;;;5.45;4.50;;;;;;;;;;4999848;28;20262;-70
2022/06/22 07:05:49;;;;;;;9.02;4.30;;;;;;;;;;4999642;28;20519;-70
2022/06/22 07:08:19;;;;;;;7.18;4.35;;;;;;;;;;4998040;28;20217;-70
2022/06/22 07:11:14;;;;;;;7.35;4.70;;;;;;;;;;5000633;28;20215;-70
2022/06/22 07:13:47;;;;;;;7.50;4.18;;;;;;;;;;4976990;28;20230;-69
2022/06/22 07:16:19;;;;;;;8.18;4.15;;;;;;;;;;4995890;28;20590;-69
2022/06/22 07:18:54;;;;;;;7.45;3.95;;;;;;;;;;4997698;28;20576;-69
2022/06/22 07:21:37;;;;;;;8.82;4.95;;;;;;;;;;5000352;28;20174;-71
2022/06/22 07:24:26;;;;;;;5.47;3.80;;;;;;;;;;4996561;28;20187;-69
2022/06/22 07:27:23;;;;;;;10.18;4.00;;;;;;;;;;4998301;28;20226;-70
2022/06/22 07:29:48;;;;;;;6.20;4.00;;;;;;;;;;4998509;28;20221;-68
2022/06/22 07:32:19;;;;;;;7.40;3.63;;;;;;;;;;4999626;28;20658;-68
2022/06/22 07:34:58;;;;;;;8.63;4.88;;;;;;;;;;4998346;28;20190;-70
2022/06/22 07:37:32;;;;;;;8.77;4.45;;;;;;;;;;4999841;28;20194;-70
2022/06/22 07:40:21;;;;;;;8.57;4.20;;;;;;;;;;5001188;28;20183;-68
2022/06/22 07:42:50;;;;;;;6.10;4.10;;;;;;;;;;4999695;28;20206;-69
2022/06/22 07:45:18;;;;;;;6.03;4.10;;;;;;;;;;5014782;28;20713;-69
2022/06/22 07:47:55;;;;;;;11.35;4.22;;;;;;;;;;4998786;28;20635;-71
2022/06/22 07:50:32;;;;;;;9.00;3.70;;;;;;;;;;4998183;28;20556;-70
2022/06/22 07:53:16;;;;;;;9.95;4.03;;;;;;;;;;4996450;28;20726;-69
2022/06/22 07:55:56;;;;;;;7.00;4.18;;;;;;;;;;4997990;28;20186;-71
2022/06/22 07:58:28;;;;;;;6.72;3.60;;;;;;;;;;4999137;28;20191;-70
2022/06/22 08:00:58;;;;;;;8.30;3.88;;;;;;;;;;4998185;28;20187;-70
2022/06/22 08:03:38;;;;;;;6.70;3.67;;;;;;;;;;4999828;28;20178;-70
2022/06/22 08:06:10;;;;;;;7.78;3.88;;;;;;;;;;4998402;28;20221;-66
2022/06/22 08:08:42;;;;;;;5.38;3.55;;;;;;;;;;4998038;28;20571;-69
2022/06/22 08:11:17;;;;;;;3.80;3.05;;;;;;;;;;4998733;28;20217;-70
2022/06/22 08:13:50;;;;;;;5.93;3.47;;;;;;;;;;4996770;28;20202;-71
2022/06/22 08:16:26;;;;;;;7.57;4.10;;;;;;;;;;5013112;28;20205;-70
2022/06/22 08:18:52;;;;;;;6.50;2.90;;;;;;;;;;4995472;28;20210;-71
2022/06/22 08:21:19;;;;;;;5.85;3.63;;;;;;;;;;4995022;28;21004;-71
2022/06/22 08:23:45;;;;;;;6.85;3.30;;;;;;;;;;4997009;28;20265;-70
2022/06/22 08:26:18;;;;;;;7.65;3.10;;;;;;;;;;4998177;28;20270;-70
2022/06/22 08:28:44;;;;;;;7.28;2.83;;;;;;;;;;4998306;28;20195;-70
2022/06/22 08:31:09;;;;;;;6.95;3.15;;;;;;;;;;4998920;28;21333;-70
2022/06/22 08:33:42;;;;;;;3.55;1.45;;;;;;;;;;4997677;28;20210;-71
2022/06/22 08:36:29;;;;;;;4.00;2.60;;;;;;;;;;4997020;28;20185;-70
2022/06/22 08:39:01;;;;;;;3.38;2.40;;;;;;;;;;4999930;28;20220;-71
2022/06/22 08:41:35;;;;;;;5.15;2.72;;;;;;;;;;4997504;28;20191;-71
2022/06/22 08:44:13;;;;;;;5.10;3.13;;;;;;;;;;4999303;28;20494;-72
2022/06/22 08:46:51;;;;;;;4.15;2.58;;;;;;;;;;5014272;28;20263;-70
2022/06/22 08:49:32;;;;;;;4.32;2.60;;;;;;;;;;4998016;28;20179;-69
2022/06/22 08:52:03;;;;;;;6.32;2.90;;;;;;;;;;4997389;28;20198;-70
2022/06/22 08:54:50;;;;;;;7.30;3.05;;;;;;;;;;4997751;28;20236;-70
2022/06/22 08:57:52;;;;;;;6.75;2.50;;;;;;;;;;4999253;28;20213;-70
2022/06/22 09:00:50;;;;;;;6.00;2.63;;;;;;;;;;5000147;28;20835;-71
2022/06/22 09:03:59;;;;;;;5.72;2.67;;;;;;;;;;4996905;28;20264;-72
2022/06/22 09:06:43;;;;;;;4.93;2.92;;;;;;;;;;4999876;28;20201;-72
2022/06/22 09:09:51;;;;;;;6.45;2.83;;;;;;;;;;5002883;28;20181;-68
2022/06/22 09:12:37;;;;;;;3.97;1.98;;;;;;;;;;4990384;28;20289;-70
2022/06/22 09:15:09;;;;;;;4.65;2.30;;;;;;;;;;4999842;28;20218;-68
2022/06/22 09:18:01;;;;;;;4.55;2.65;;;;;;;;;;4998271;28;20183;-71
2022/06/22 09:20:38;;;;;;;3.45;2.30;;;;;;;;;;4998408;28;20252;-70
2022/06/22 09:23:12;;;;;;;3.72;2.60;;;;;;;;;;4997689;28;20762;-65
2022/06/22 09:25:49;;;;;;;6.18;2.58;;;;;;;;;;4998539;28;20182;-70
2022/06/22 09:28:31;;;;;;;9.85;2.88;;;;;;;;;;4997078;28;20223;-69
2022/06/22 09:31:24;;;;;;;7.60;2.53;;;;;;;;;;4997735;28;20218;-69
2022/06/22 09:34:28;;;;;;;5.85;2.67;;;;;;;;;;4997683;28;20256;-70
2022/06/22 09:37:24;;;;;;;3.92;2.10;;;;;;;;;;4927322;29;20189;-70
2022/06/22 09:40:11;;;;;;;3.35;1.98;;;;;;;;;;4930917;29;20205;-70
2022/06/22 09:43:07;;;;;;;4.45;2.03;;;;;;;;;;4986547;28;20646;-71
2022/06/22 09:45:44;;;;;;;4.25;2.30;;;;;;;;;;5000493;28;20213;-70
2022/06/22 09:48:50;;;;;;;5.00;2.70;;;;;;;;;;4998672;28;20272;-69
2022/06/22 09:51:25;;;;;;;4.47;2.75;;;;;;;;;;4998679;28;20287;-70
2022/06/22 09:57:37;;;;;;;2.35;2.15;;;;;;;;;;5001279;28;20252;-70
2022/06/22 10:00:19;;;;;;;4.30;2.13;;;;;;;;;;4998026;28;20589;-70
2022/06/22 10:03:10;;;;;;;4.40;2.20;;;;;;;;;;5002446;28;20178;-71
2022/06/22 10:05:53;;;;;;;3.38;1.98;;;;;;;;;;4999410;28;20193;-67
2022/06/22 10:08:50;;;;;;;4.00;1.63;;;;;;;;;;4996052;28;20662;-69
2022/06/22 10:11:36;;;;;;;3.92;2.58;;;;;;;;;;5013663;28;20287;-71
2022/06/22 10:14:25;;;;;;;5.82;2.38;;;;;;;;;;4998780;28;20222;-70
2022/06/22 10:17:28;;;;;;;2.95;1.85;;;;;;;;;;5000247;28;20183;-69
2022/06/22 10:20:41;;;;;;;4.18;2.20;;;;;;;;;;4995787;28;20759;-71
2022/06/22 10:23:06;;;;;;;4.05;1.80;;;;;;;;;;4941848;28;20529;-71
2022/06/22 10:25:37;;;;;;;3.55;1.77;;;;;;;;;;4943667;28;20189;-71
2022/06/22 10:28:30;;;;;;;5.45;1.70;;;;;;;;;;4977312;28;20689;-70
2022/06/22 10:31:01;;;;;;;4.43;1.50;;;;;;;;;;4997463;28;20363;-71
2022/06/22 10:33:44;;;;;;;2.33;1.80;;;;;;;;;;4997696;28;20210;-69
2022/06/22 10:36:33;;;;;;;4.18;1.65;;;;;;;;;;4996923;28;20174;-69
2022/06/22 10:39:03;;;;;;;2.63;1.55;;;;;;;;;;4986592;28;20583;-70
2022/06/22 10:45:18;;;;;;;3.42;1.70;;;;;;;;;;5002582;28;20229;-71
2022/06/22 10:48:22;;;;;;;5.65;1.60;;;;;;;;;;5001937;28;20178;-69
2022/06/22 10:51:14;;;;;;;3.72;2.17;;;;;;;;;;5002574;28;20387;-67
2022/06/22 10:53:58;;;;;;;4.97;1.95;;;;;;;;;;5001698;28;20278;-70
2022/06/22 10:56:52;;;;;;;4.07;2.00;;;;;;;;;;5003490;28;20182;-67
2022/06/22 10:59:38;;;;;;;2.95;1.75;;;;;;;;;;4998725;28;20191;-70
2022/06/22 11:02:42;;;;;;;2.97;1.90;;;;;;;;;;5000042;28;20259;-71
2022/06/22 11:05:28;;;;;;;3.60;1.48;;;;;;;;;;5000562;28;20186;-69
2022/06/22 11:08:21;;;;;;;3.63;1.95;;;;;;;;;;4998681;28;20555;-70
2022/06/22 11:11:12;;;;;;;6.45;2.58;;;;;;;;;;5000108;28;20201;-70
2022/06/22 11:14:03;;;;;;;5.13;2.05;;;;;;;;;;4999572;28;20226;-70
2022/06/22 11:16:31;;;;;;;3.90;2.00;;;;;;;;;;4999665;28;20195;-69
2022/06/22 11:19:29;;;;;;;3.60;1.95;;;;;;;;;;4998088;28;20201;-70
2022/06/22 11:22:14;;;;;;;4.63;1.90;;;;;;;;;;4997520;28;20179;-67
2022/06/22 11:30:48;;;;;;;3.67;1.90;;;;;;;;;;4999895;28;20482;-71
2022/06/22 11:31:42;;;;;;;3.45;1.50;;;;;;;;;;5000227;28;20218;-69
2022/06/22 11:34:26;;;;;;;3.38;1.90;;;;;;;;;;5000531;28;20192;-65
2022/06/22 11:36:54;;;;;;;2.95;1.48;;;;;;;;;;4999376;28;20593;-70
2022/06/22 11:39:44;;;;;;;2.40;1.65;;;;;;;;;;5001282;28;20589;-68
2022/06/22 11:42:21;;;;;;;3.70;1.40;;;;;;;;;;5001152;28;20285;-69
2022/06/22 11:47:54;;;;;;;6.63;1.48;;;;;;;;;;5001426;28;20257;-70
2022/06/22 11:50:31;;;;;;;2.25;1.48;;;;;;;;;;5002300;28;20210;-69
2022/06/22 11:53:04;;;;;;;5.07;1.52;;;;;;;;;;4999963;28;20198;-69
2022/06/22 11:55:41;;;;;;;4.45;1.73;;;;;;;;;;5001337;28;20183;-70
2022/06/22 11:58:31;;;;;;;2.50;1.30;;;;;;;;;;5002871;28;20182;-70
2022/06/22 12:01:18;;;;;;;3.40;1.58;;;;;;;;;;5004222;28;20166;-71
2022/06/22 12:04:00;;;;;;;2.20;1.40;;;;;;;;;;5001954;28;20186;-70
2022/06/22 12:06:37;;;;;;;4.63;1.23;;;;;;;;;;4999737;28;20289;-70
2022/06/22 12:09:33;;;;;;;8.00;1.42;;;;;;;;;;5014602;28;20213;-70
2022/06/22 12:12:49;;;;;;;1.70;1.10;;;;;;;;;;5000311;28;20270;-71
2022/06/22 12:15:53;;;;;;;3.08;1.20;;;;;;;;;;4985236;28;20198;-68
2022/06/22 12:18:34;;;;;;;2.40;1.02;;;;;;;;;;4996100;28;20210;-70
2022/06/22 12:21:08;;;;;;;2.90;1.30;;;;;;;;;;4999505;28;20170;-70
2022/06/22 12:23:39;;;;;;;3.95;1.08;;;;;;;;;;4999206;28;20583;-69
2022/06/22 12:26:23;;;;;;;1.38;0.95;;;;;;;;;;4997968;28;20213;-71
2022/06/22 12:29:01;;;;;;;2.45;0.93;;;;;;;;;;4997818;28;20729;-71
2022/06/22 12:31:34;;;;;;;2.13;0.93;;;;;;;;;;4997661;28;20788;-67
2022/06/22 12:34:25;;;;;;;2.67;0.90;;;;;;;;;;4999039;28;20286;-71
2022/06/22 12:36:56;;;;;;;4.13;1.00;;;;;;;;;;4999209;28;20174;-65
2022/06/22 12:39:32;;;;;;;5.20;1.02;;;;;;;;;;4999121;28;20194;-65
2022/06/22 12:42:07;;;;;;;2.70;1.17;;;;;;;;;;4997992;28;20317;-71
2022/06/22 12:45:06;;;;;;;3.05;0.77;;;;;;;;;;4997210;28;20328;-71
2022/06/22 12:48:09;;;;;;;1.58;0.90;;;;;;;;;;5010911;28;20237;-70
2022/06/22 12:51:03;;;;;;;2.13;0.80;;;;;;;;;;4997737;28;20192;-70
2022/06/22 12:53:57;;;;;;;1.35;0.70;;;;;;;;;;4996771;28;20206;-69
2022/06/22 12:56:36;;;;;;;1.15;0.80;;;;;;;;;;4980537;28;20569;-70
2022/06/22 12:59:15;;;;;;;2.63;0.85;;;;;;;;;;4996672;28;20191;-69
2022/06/22 13:01:40;;;;;;;1.42;0.90;;;;;;;;;;4996393;28;20592;-69
2022/06/22 13:04:13;;;;;;;3.22;1.30;;;;;;;;;;4998318;28;20285;-69
2022/06/22 13:06:46;;;;;;;3.25;1.02;;;;;;;;;;4995552;28;20175;-70
2022/06/22 13:09:12;;;;;;;2.25;1.02;;;;;;;;;;4996351;28;20183;-69
2022/06/22 13:11:38;;;;;;;3.83;1.10;;;;;;;;;;5001980;28;20661;-71
2022/06/22 13:14:25;;;;;;;4.50;1.33;;;;;;;;;;5005210;28;20321;-70
2022/06/22 13:17:13;;;;;;;2.10;1.20;;;;;;;;;;5018712;28;20191;-69
2022/06/22 13:20:16;;;;;;;1.88;1.10;;;;;;;;;;4998351;28;20571;-70
2022/06/22 13:22:55;;;;;;;1.35;0.80;;;;;;;;;;4997815;28;20190;-67
2022/06/22 13:25:48;;;;;;;3.20;0.90;;;;;;;;;;5002927;28;20183;-70
2022/06/22 13:28:28;;;;;;;0.93;0.75;;;;;;;;;;5017815;28;20627;-71
2022/06/22 13:31:03;;;;;;;2.40;1.00;;;;;;;;;;4999563;28;20301;-70
2022/06/22 13:33:41;;;;;;;2.15;0.98;;;;;;;;;;5002122;28;20226;-71
2022/06/22 13:36:13;;;;;;;4.25;1.23;;;;;;;;;;5002819;28;20182;-71
2022/06/22 13:38:49;;;;;;;3.42;0.90;;;;;;;;;;5000149;28;20190;-71
2022/06/22 13:41:36;;;;;;;1.52;0.80;;;;;;;;;;5001445;28;20197;-71
2022/06/22 13:44:13;;;;;;;1.38;0.70;;;;;;;;;;5001837;28;20264;-71
2022/06/22 13:47:10;;;;;;;1.85;0.90;;;;;;;;;;5013030;28;20187;-70
2022/06/22 13:50:25;;;;;;;2.42;1.13;;;;;;;;;;5002244;28;20421;-71
2022/06/22 13:52:54;;;;;;;3.70;0.75;;;;;;;;;;5017356;28;20298;-71
2022/06/22 13:55:28;;;;;;;1.75;0.95;;;;;;;;;;5001645;28;20685;-70
2022/06/22 13:58:09;;;;;;;2.15;0.90;;;;;;;;;;5000211;28;20224;-70
2022/06/22 14:00:52;;;;;;;3.53;0.90;;;;;;;;;;4999773;28;20175;-71
2022/06/22 14:03:44;;;;;;;3.22;0.93;;;;;;;;;;4998774;28;20179;-71
2022/06/22 14:06:18;;;;;;;1.08;0.80;;;;;;;;;;4986195;28;20198;-68
2022/06/22 14:08:43;;;;;;;1.95;0.73;;;;;;;;;;4999087;28;20215;-71
2022/06/22 14:11:25;;;;;;;1.08;0.80;;;;;;;;;;5000377;28;20187;-71
2022/06/22 14:14:15;;;;;;;3.05;1.10;;;;;;;;;;4998778;28;20210;-71
2022/06/22 14:17:01;;;;;;;2.95;0.90;;;;;;;;;;5001763;28;20578;-70
2022/06/22 14:20:01;;;;;;;2.33;1.00;;;;;;;;;;5017612;28;20311;-70
2022/06/22 14:22:33;;;;;;;1.52;0.90;;;;;;;;;;5001753;28;20815;-71
2022/06/22 14:25:00;;;;;;;1.30;0.95;;;;;;;;;;4998934;28;20175;-69
2022/06/22 14:27:35;;;;;;;0.95;0.75;;;;;;;;;;5001561;28;20918;-70
2022/06/22 14:30:07;;;;;;;1.63;0.90;;;;;;;;;;5001527;28;20182;-71
2022/06/22 14:33:06;;;;;;;1.30;1.00;;;;;;;;;;5001644;28;20210;-69
2022/06/22 14:36:04;;;;;;;3.85;0.90;;;;;;;;;;5003226;28;20187;-71
2022/06/22 14:38:49;;;;;;;2.55;0.98;;;;;;;;;;4999415;28;20202;-71
2022/06/22 14:41:29;;;;;;;1.42;0.90;;;;;;;;;;5003413;28;20179;-71
2022/06/22 14:44:06;;;;;;;2.13;0.90;;;;;;;;;;5001619;28;20191;-69
2022/06/22 14:47:02;;;;;;;1.50;0.75;;;;;;;;;;5000706;28;21254;-70
2022/06/22 14:49:54;;;;;;;0.93;0.90;;;;;;;;;;5000073;28;20269;-71
2022/06/22 14:52:40;;;;;;;4.57;1.00;;;;;;;;;;5001795;28;20362;-70
2022/06/22 14:55:36;;;;;;;1.88;0.90;;;;;;;;;;4999079;28;20183;-68
2022/06/22 14:58:15;;;;;;;3.03;0.80;;;;;;;;;;5000800;28;20190;-71
2022/06/22 15:01:04;;;;;;;1.60;0.90;;;;;;;;;;4998807;28;20286;-71
2022/06/22 15:03:48;;;;;;;1.23;0.80;;;;;;;;;;5001847;28;20217;-70
2022/06/22 15:06:46;;;;;;;5.18;0.93;;;;;;;;;;4998593;28;20892;-70
2022/06/22 15:09:17;;;;;;;1.80;0.85;;;;;;;;;;5000805;28;20646;-69
2022/06/22 15:14:49;;;;;;;1.80;1.00;;;;;;;;;;5000798;28;20281;-70
2022/06/22 15:17:26;;;;;;;0.73;0.73;;;;;;;;;;5001640;28;20631;-71
2022/06/22 15:19:58;;;;;;;1.50;1.23;;;;;;;;;;5004355;28;20653;-70
2022/06/22 15:22:34;;;;;;;1.70;1.05;;;;;;;;;;4999376;28;20244;-71
2022/06/22 15:25:16;;;;;;;3.63;1.10;;;;;;;;;;4998362;28;20554;-70
2022/06/22 15:27:49;;;;;;;1.75;1.00;;;;;;;;;;5013759;28;20749;-70
2022/06/22 15:30:19;;;;;;;2.50;1.08;;;;;;;;;;5001784;28;20573;-71
2022/06/22 15:33:06;;;;;;;1.27;0.80;;;;;;;;;;4999707;28;20214;-71
2022/06/22 15:35:41;;;;;;;1.13;1.10;;;;;;;;;;4999807;28;20192;-71
2022/06/22 15:38:18;;;;;;;1.63;1.15;;;;;;;;;;4998111;28;20300;-71
2022/06/22 15:40:59;;;;;;;2.65;1.08;;;;;;;;;;4999014;28;20182;-72
2022/06/22 15:43:33;;;;;;;2.83;1.27;;;;;;;;;;4999049;28;20259;-71
2022/06/22 15:46:27;;;;;;;2.00;1.20;;;;;;;;;;4998312;28;20243;-72
2022/06/22 15:49:12;;;;;;;1.63;1.10;;;;;;;;;;4996269;28;20646;-72
2022/06/22 15:51:46;;;;;;;1.80;1.40;;;;;;;;;;4999177;28;20182;-71
2022/06/22 15:54:38;;;;;;;1.30;1.20;;;;;;;;;;4998604;28;20531;-69
2022/06/22 15:57:22;;;;;;;2.00;1.38;;;;;;;;;;5015906;28;20213;-71
2022/06/22 16:00:11;;;;;;;1.40;1.30;;;;;;;;;;4999923;28;20229;-68
2022/06/22 16:02:58;;;;;;;2.03;1.00;;;;;;;;;;4997140;28;20704;-70
2022/06/22 16:05:23;;;;;;;1.75;1.25;;;;;;;;;;4998836;28;20182;-71
2022/06/22 16:08:23;;;;;;;3.25;1.20;;;;;;;;;;4998536;28;20640;-72